sensor_id;sensor_type;location;lat;lon;timestamp;temperature;humidity
67182;DHT22;54114;53.524;49.396;2023-02-26T00:01:43;3.00;84.10
67182;DHT22;54114;53.524;49.396;2023-02-26T00:04:12;3.00;83.80
67182;DHT22;54114;53.524;49.396;2023-02-26T00:06:41;3.00;84.10
67182;DHT22;54114;53.524;49.396;2023-02-26T00:09:18;3.00;84.40
67182;DHT22;54114;53.524;49.396;2023-02-26T00:11:50;3.10;84.20
67182;DHT22;54114;53.524;49.396;2023-02-26T00:14:20;3.10;84.50
67182;DHT22;54114;53.524;49.396;2023-02-26T00:17:36;3.10;84.60
67182;DHT22;54114;53.524;49.396;2023-02-26T00:19:55;3.10;84.80
67182;DHT22;54114;53.524;49.396;2023-02-26T00:22:22;3.10;85.20
67182;DHT22;54114;53.524;49.396;2023-02-26T00:24:49;3.10;84.90
67182;DHT22;54114;53.524;49.396;2023-02-26T00:27:18;3.10;85.30
67182;DHT22;54114;53.524;49.396;2023-02-26T00:29:45;3.10;85.20
67182;DHT22;54114;53.524;49.396;2023-02-26T00:32:12;3.00;85.60
67182;DHT22;54114;53.524;49.396;2023-02-26T00:34:39;3.10;85.80
67182;DHT22;54114;53.524;49.396;2023-02-26T00:37:22;3.00;85.60
67182;DHT22;54114;53.524;49.396;2023-02-26T00:42:47;3.10;86.20
67182;DHT22;54114;53.524;49.396;2023-02-26T00:45:17;3.10;85.80
67182;DHT22;54114;53.524;49.396;2023-02-26T00:47:58;3.10;86.10
67182;DHT22;54114;53.524;49.396;2023-02-26T00:50:26;3.10;85.90
67182;DHT22;54114;53.524;49.396;2023-02-26T00:53:28;3.10;86.10
67182;DHT22;54114;53.524;49.396;2023-02-26T00:55:58;3.10;86.30
67182;DHT22;54114;53.524;49.396;2023-02-26T00:58:25;3.20;85.90
67182;DHT22;54114;53.524;49.396;2023-02-26T01:00:52;3.20;86.10
67182;DHT22;54114;53.524;49.396;2023-02-26T01:03:21;3.20;86.20
67182;DHT22;54114;53.524;49.396;2023-02-26T01:05:48;3.20;86.10
67182;DHT22;54114;53.524;49.396;2023-02-26T01:08:23;3.20;85.90
67182;DHT22;54114;53.524;49.396;2023-02-26T01:11:05;3.20;86.10
67182;DHT22;54114;53.524;49.396;2023-02-26T01:13:32;3.20;86.00
67182;DHT22;54114;53.524;49.396;2023-02-26T01:16:04;3.30;85.90
67182;DHT22;54114;53.524;49.396;2023-02-26T01:18:41;3.30;85.80
67182;DHT22;54114;53.524;49.396;2023-02-26T01:21:16;3.30;85.60
67182;DHT22;54114;53.524;49.396;2023-02-26T01:23:52;3.30;85.70
67182;DHT22;54114;53.524;49.396;2023-02-26T01:26:25;3.30;85.60
67182;DHT22;54114;53.524;49.396;2023-02-26T01:28:55;3.40;85.60
67182;DHT22;54114;53.524;49.396;2023-02-26T01:31:46;3.40;85.60
67182;DHT22;54114;53.524;49.396;2023-02-26T01:34:23;3.40;85.30
67182;DHT22;54114;53.524;49.396;2023-02-26T01:42:35;3.30;85.10
67182;DHT22;54114;53.524;49.396;2023-02-26T01:45:17;3.20;85.50
67182;DHT22;54114;53.524;49.396;2023-02-26T01:48:17;3.20;85.40
67182;DHT22;54114;53.524;49.396;2023-02-26T01:50:52;3.20;85.50
67182;DHT22;54114;53.524;49.396;2023-02-26T01:53:23;3.20;85.40
67182;DHT22;54114;53.524;49.396;2023-02-26T01:56:03;3.10;85.70
67182;DHT22;54114;53.524;49.396;2023-02-26T01:58:43;3.00;85.90
67182;DHT22;54114;53.524;49.396;2023-02-26T02:01:10;3.00;86.00
67182;DHT22;54114;53.524;49.396;2023-02-26T02:03:38;3.00;86.00
67182;DHT22;54114;53.524;49.396;2023-02-26T02:06:18;3.00;86.20
67182;DHT22;54114;53.524;49.396;2023-02-26T02:08:46;2.90;86.30
67182;DHT22;54114;53.524;49.396;2023-02-26T02:11:16;2.90;86.40
67182;DHT22;54114;53.524;49.396;2023-02-26T02:14:35;2.90;86.70
67182;DHT22;54114;53.524;49.396;2023-02-26T02:17:16;2.90;86.50
67182;DHT22;54114;53.524;49.396;2023-02-26T02:19:58;2.90;86.50
67182;DHT22;54114;53.524;49.396;2023-02-26T02:26:12;2.80;86.60
67182;DHT22;54114;53.524;49.396;2023-02-26T02:34:46;2.80;86.70
67182;DHT22;54114;53.524;49.396;2023-02-26T02:37:55;2.80;86.90
67182;DHT22;54114;53.524;49.396;2023-02-26T02:40:32;2.80;87.00
67182;DHT22;54114;53.524;49.396;2023-02-26T02:43:12;2.80;87.20
67182;DHT22;54114;53.524;49.396;2023-02-26T02:45:53;2.80;86.80
67182;DHT22;54114;53.524;49.396;2023-02-26T02:48:28;2.80;86.90
67182;DHT22;54114;53.524;49.396;2023-02-26T02:51:12;2.80;87.00
67182;DHT22;54114;53.524;49.396;2023-02-26T02:54:12;2.80;86.80
67182;DHT22;54114;53.524;49.396;2023-02-26T02:57:03;2.80;86.80
67182;DHT22;54114;53.524;49.396;2023-02-26T02:59:59;2.80;86.80
67182;DHT22;54114;53.524;49.396;2023-02-26T03:05:12;2.70;86.90
67182;DHT22;54114;53.524;49.396;2023-02-26T03:07:53;2.60;86.90
67182;DHT22;54114;53.524;49.396;2023-02-26T03:10:25;2.70;87.00
67182;DHT22;54114;53.524;49.396;2023-02-26T03:12:55;2.60;86.90
67182;DHT22;54114;53.524;49.396;2023-02-26T03:24:58;2.50;87.10
67182;DHT22;54114;53.524;49.396;2023-02-26T03:30:22;2.50;87.30
67182;DHT22;54114;53.524;49.396;2023-02-26T03:36:17;2.40;87.40
67182;DHT22;54114;53.524;49.396;2023-02-26T03:38:49;2.50;87.60
67182;DHT22;54114;53.524;49.396;2023-02-26T03:41:38;2.50;87.70
67182;DHT22;54114;53.524;49.396;2023-02-26T03:44:14;2.50;87.60
67182;DHT22;54114;53.524;49.396;2023-02-26T03:47:10;2.50;87.70
67182;DHT22;54114;53.524;49.396;2023-02-26T03:49:48;2.50;87.70
67182;DHT22;54114;53.524;49.396;2023-02-26T03:52:26;2.50;87.70
67182;DHT22;54114;53.524;49.396;2023-02-26T03:54:58;2.50;87.70
67182;DHT22;54114;53.524;49.396;2023-02-26T03:57:34;2.50;87.70
67182;DHT22;54114;53.524;49.396;2023-02-26T04:00:04;2.50;87.70
67182;DHT22;54114;53.524;49.396;2023-02-26T04:05:39;2.50;87.70
67182;DHT22;54114;53.524;49.396;2023-02-26T04:08:08;2.60;87.70
67182;DHT22;54114;53.524;49.396;2023-02-26T04:10:53;2.60;87.70
67182;DHT22;54114;53.524;49.396;2023-02-26T04:13:22;2.60;87.70
67182;DHT22;54114;53.524;49.396;2023-02-26T04:15:49;2.60;87.40
67182;DHT22;54114;53.524;49.396;2023-02-26T04:18:20;2.60;87.50
67182;DHT22;54114;53.524;49.396;2023-02-26T04:20:47;2.60;87.60
67182;DHT22;54114;53.524;49.396;2023-02-26T04:23:16;2.60;87.50
67182;DHT22;54114;53.524;49.396;2023-02-26T04:25:45;2.70;87.60
67182;DHT22;54114;53.524;49.396;2023-02-26T04:28:12;2.70;87.50
67182;DHT22;54114;53.524;49.396;2023-02-26T04:30:38;2.70;87.40
67182;DHT22;54114;53.524;49.396;2023-02-26T04:33:05;2.70;87.40
67182;DHT22;54114;53.524;49.396;2023-02-26T04:35:32;2.70;87.40
67182;DHT22;54114;53.524;49.396;2023-02-26T04:38:01;2.70;87.10
67182;DHT22;54114;53.524;49.396;2023-02-26T04:40:27;2.70;87.20
67182;DHT22;54114;53.524;49.396;2023-02-26T04:42:54;2.70;87.30
67182;DHT22;54114;53.524;49.396;2023-02-26T04:45:20;2.80;87.30
67182;DHT22;54114;53.524;49.396;2023-02-26T04:47:49;2.80;87.30
67182;DHT22;54114;53.524;49.396;2023-02-26T04:50:18;2.80;87.20
67182;DHT22;54114;53.524;49.396;2023-02-26T04:52:45;2.80;87.20
67182;DHT22;54114;53.524;49.396;2023-02-26T04:55:12;2.90;87.10
67182;DHT22;54114;53.524;49.396;2023-02-26T04:57:39;2.90;87.10
67182;DHT22;54114;53.524;49.396;2023-02-26T05:00:14;2.90;87.10
67182;DHT22;54114;53.524;49.396;2023-02-26T05:02:45;2.90;87.10
67182;DHT22;54114;53.524;49.396;2023-02-26T05:05:11;2.90;87.00
67182;DHT22;54114;53.524;49.396;2023-02-26T05:07:38;3.00;87.10
67182;DHT22;54114;53.524;49.396;2023-02-26T05:10:06;3.00;87.10
67182;DHT22;54114;53.524;49.396;2023-02-26T05:12:33;3.00;87.10
67182;DHT22;54114;53.524;49.396;2023-02-26T05:15:05;3.00;87.00
67182;DHT22;54114;53.524;49.396;2023-02-26T05:17:32;3.10;87.10
67182;DHT22;54114;53.524;49.396;2023-02-26T05:20:01;3.10;87.20
67182;DHT22;54114;53.524;49.396;2023-02-26T05:22:32;3.10;87.00
67182;DHT22;54114;53.524;49.396;2023-02-26T05:25:01;3.10;87.00
67182;DHT22;54114;53.524;49.396;2023-02-26T05:27:32;3.10;86.80
67182;DHT22;54114;53.524;49.396;2023-02-26T05:30:01;3.20;86.80
67182;DHT22;54114;53.524;49.396;2023-02-26T05:32:28;3.20;87.10
67182;DHT22;54114;53.524;49.396;2023-02-26T05:34:57;3.20;87.70
67182;DHT22;54114;53.524;49.396;2023-02-26T05:37:23;3.20;87.00
67182;DHT22;54114;53.524;49.396;2023-02-26T05:39:50;3.20;87.20
67182;DHT22;54114;53.524;49.396;2023-02-26T05:42:17;3.20;87.30
67182;DHT22;54114;53.524;49.396;2023-02-26T05:44:44;3.30;87.20
67182;DHT22;54114;53.524;49.396;2023-02-26T05:47:13;3.30;87.30
67182;DHT22;54114;53.524;49.396;2023-02-26T05:49:39;3.30;87.40
67182;DHT22;54114;53.524;49.396;2023-02-26T05:52:06;3.40;87.20
67182;DHT22;54114;53.524;49.396;2023-02-26T05:54:35;3.40;87.10
67182;DHT22;54114;53.524;49.396;2023-02-26T05:57:04;3.40;87.20
67182;DHT22;54114;53.524;49.396;2023-02-26T05:59:31;3.40;86.90
67182;DHT22;54114;53.524;49.396;2023-02-26T06:02:00;3.40;87.00
67182;DHT22;54114;53.524;49.396;2023-02-26T06:04:32;3.30;87.10
67182;DHT22;54114;53.524;49.396;2023-02-26T06:06:59;3.40;86.90
67182;DHT22;54114;53.524;49.396;2023-02-26T06:09:26;3.30;87.10
67182;DHT22;54114;53.524;49.396;2023-02-26T06:11:55;3.30;87.00
67182;DHT22;54114;53.524;49.396;2023-02-26T06:14:22;3.30;87.50
67182;DHT22;54114;53.524;49.396;2023-02-26T06:16:49;3.30;87.50
67182;DHT22;54114;53.524;49.396;2023-02-26T06:19:18;3.30;87.50
67182;DHT22;54114;53.524;49.396;2023-02-26T06:21:46;3.30;87.60
67182;DHT22;54114;53.524;49.396;2023-02-26T06:24:13;3.30;87.90
67182;DHT22;54114;53.524;49.396;2023-02-26T06:26:40;3.40;88.00
67182;DHT22;54114;53.524;49.396;2023-02-26T06:29:09;3.40;87.90
67182;DHT22;54114;53.524;49.396;2023-02-26T06:31:36;3.40;87.60
67182;DHT22;54114;53.524;49.396;2023-02-26T06:34:03;3.40;87.60
67182;DHT22;54114;53.524;49.396;2023-02-26T06:36:34;3.50;87.50
67182;DHT22;54114;53.524;49.396;2023-02-26T06:39:03;3.50;87.40
67182;DHT22;54114;53.524;49.396;2023-02-26T06:41:30;3.50;87.90
67182;DHT22;54114;53.524;49.396;2023-02-26T06:43:56;3.60;87.90
67182;DHT22;54114;53.524;49.396;2023-02-26T06:46:25;3.60;87.90
67182;DHT22;54114;53.524;49.396;2023-02-26T06:48:56;3.70;87.70
67182;DHT22;54114;53.524;49.396;2023-02-26T06:51:23;3.80;88.00
67182;DHT22;54114;53.524;49.396;2023-02-26T06:53:52;3.80;87.60
67182;DHT22;54114;53.524;49.396;2023-02-26T06:56:19;3.80;87.40
67182;DHT22;54114;53.524;49.396;2023-02-26T06:58:46;3.90;87.60
67182;DHT22;54114;53.524;49.396;2023-02-26T07:01:12;3.90;87.30
67182;DHT22;54114;53.524;49.396;2023-02-26T07:03:39;4.00;87.20
67182;DHT22;54114;53.524;49.396;2023-02-26T07:06:06;4.00;86.90
67182;DHT22;54114;53.524;49.396;2023-02-26T07:08:34;4.00;86.90
67182;DHT22;54114;53.524;49.396;2023-02-26T07:11:00;4.10;86.90
67182;DHT22;54114;53.524;49.396;2023-02-26T07:13:29;4.10;86.60
67182;DHT22;54114;53.524;49.396;2023-02-26T07:15:56;4.20;86.70
67182;DHT22;54114;53.524;49.396;2023-02-26T07:18:25;4.20;86.40
67182;DHT22;54114;53.524;49.396;2023-02-26T07:20:52;4.20;86.30
67182;DHT22;54114;53.524;49.396;2023-02-26T07:23:18;4.20;86.40
67182;DHT22;54114;53.524;49.396;2023-02-26T07:25:48;4.30;86.20
67182;DHT22;54114;53.524;49.396;2023-02-26T07:28:18;4.30;85.90
67182;DHT22;54114;53.524;49.396;2023-02-26T07:30:46;4.30;85.60
67182;DHT22;54114;53.524;49.396;2023-02-26T07:33:12;4.40;85.60
67182;DHT22;54114;53.524;49.396;2023-02-26T07:35:41;4.40;85.80
67182;DHT22;54114;53.524;49.396;2023-02-26T07:38:08;4.40;85.60
67182;DHT22;54114;53.524;49.396;2023-02-26T07:40:34;4.40;85.30
67182;DHT22;54114;53.524;49.396;2023-02-26T07:43:03;4.40;85.30
67182;DHT22;54114;53.524;49.396;2023-02-26T07:45:35;4.40;84.90
67182;DHT22;54114;53.524;49.396;2023-02-26T07:48:04;4.40;85.00
67182;DHT22;54114;53.524;49.396;2023-02-26T07:50:35;4.40;85.30
67182;DHT22;54114;53.524;49.396;2023-02-26T07:53:02;4.50;85.10
67182;DHT22;54114;53.524;49.396;2023-02-26T07:55:28;4.40;84.60
67182;DHT22;54114;53.524;49.396;2023-02-26T07:57:55;4.30;84.00
67182;DHT22;54114;53.524;49.396;2023-02-26T08:00:24;4.30;84.00
67182;DHT22;54114;53.524;49.396;2023-02-26T08:02:51;4.30;84.30
67182;DHT22;54114;53.524;49.396;2023-02-26T08:05:20;4.20;84.50
67182;DHT22;54114;53.524;49.396;2023-02-26T08:07:49;4.20;84.60
67182;DHT22;54114;53.524;49.396;2023-02-26T08:10:20;4.20;84.60
67182;DHT22;54114;53.524;49.396;2023-02-26T08:12:47;4.20;85.10
67182;DHT22;54114;53.524;49.396;2023-02-26T08:15:13;4.20;85.20
67182;DHT22;54114;53.524;49.396;2023-02-26T08:17:40;4.10;85.10
67182;DHT22;54114;53.524;49.396;2023-02-26T08:20:08;4.10;85.10
67182;DHT22;54114;53.524;49.396;2023-02-26T08:22:35;4.10;85.10
67182;DHT22;54114;53.524;49.396;2023-02-26T08:25:02;4.10;85.30
67182;DHT22;54114;53.524;49.396;2023-02-26T08:27:29;4.10;85.10
67182;DHT22;54114;53.524;49.396;2023-02-26T08:29:58;4.30;85.20
67182;DHT22;54114;53.524;49.396;2023-02-26T08:32:27;4.30;84.80
67182;DHT22;54114;53.524;49.396;2023-02-26T08:34:56;4.30;84.50
67182;DHT22;54114;53.524;49.396;2023-02-26T08:37:23;4.40;84.00
67182;DHT22;54114;53.524;49.396;2023-02-26T08:39:53;4.40;84.00
67182;DHT22;54114;53.524;49.396;2023-02-26T08:42:20;4.40;83.70
67182;DHT22;54114;53.524;49.396;2023-02-26T08:44:47;4.50;83.60
67182;DHT22;54114;53.524;49.396;2023-02-26T08:47:14;4.50;83.00
67182;DHT22;54114;53.524;49.396;2023-02-26T08:49:40;4.50;82.80
67182;DHT22;54114;53.524;49.396;2023-02-26T08:52:07;4.50;82.60
67182;DHT22;54114;53.524;49.396;2023-02-26T08:54:34;4.50;82.10
67182;DHT22;54114;53.524;49.396;2023-02-26T08:57:00;4.50;82.10
67182;DHT22;54114;53.524;49.396;2023-02-26T08:59:28;4.50;82.00
67182;DHT22;54114;53.524;49.396;2023-02-26T09:01:57;4.50;81.90
67182;DHT22;54114;53.524;49.396;2023-02-26T09:04:24;4.50;81.80
67182;DHT22;54114;53.524;49.396;2023-02-26T09:06:51;4.50;81.80
67182;DHT22;54114;53.524;49.396;2023-02-26T09:09:18;4.40;82.30
67182;DHT22;54114;53.524;49.396;2023-02-26T09:11:45;4.40;82.20
67182;DHT22;54114;53.524;49.396;2023-02-26T09:14:12;4.40;81.80
67182;DHT22;54114;53.524;49.396;2023-02-26T09:16:39;4.30;82.00
67182;DHT22;54114;53.524;49.396;2023-02-26T09:19:08;4.30;82.20
67182;DHT22;54114;53.524;49.396;2023-02-26T09:21:38;4.20;82.50
67182;DHT22;54114;53.524;49.396;2023-02-26T09:24:07;4.20;83.10
67182;DHT22;54114;53.524;49.396;2023-02-26T09:26:36;4.10;83.40
67182;DHT22;54114;53.524;49.396;2023-02-26T09:29:03;4.10;83.60
67182;DHT22;54114;53.524;49.396;2023-02-26T09:31:30;4.00;83.80
67182;DHT22;54114;53.524;49.396;2023-02-26T09:33:57;4.00;84.20
67182;DHT22;54114;53.524;49.396;2023-02-26T09:36:24;4.00;84.50
67182;DHT22;54114;53.524;49.396;2023-02-26T09:38:53;3.90;84.40
67182;DHT22;54114;53.524;49.396;2023-02-26T09:41:29;3.90;85.20
67182;DHT22;54114;53.524;49.396;2023-02-26T09:44:23;3.90;84.80
67182;DHT22;54114;53.524;49.396;2023-02-26T09:55:11;4.00;84.80
67182;DHT22;54114;53.524;49.396;2023-02-26T09:57:47;4.00;84.70
67182;DHT22;54114;53.524;49.396;2023-02-26T10:00:40;4.00;84.80
67182;DHT22;54114;53.524;49.396;2023-02-26T10:08:18;4.00;84.00
67182;DHT22;54114;53.524;49.396;2023-02-26T10:16:17;4.00;83.90
67182;DHT22;54114;53.524;49.396;2023-02-26T10:19:16;4.00;84.00
67182;DHT22;54114;53.524;49.396;2023-02-26T10:21:45;4.00;83.60
67182;DHT22;54114;53.524;49.396;2023-02-26T10:24:36;4.10;83.80
67182;DHT22;54114;53.524;49.396;2023-02-26T10:27:11;4.00;83.60
67182;DHT22;54114;53.524;49.396;2023-02-26T10:29:52;4.00;83.80
67182;DHT22;54114;53.524;49.396;2023-02-26T10:35:18;3.90;84.00
67182;DHT22;54114;53.524;49.396;2023-02-26T10:46:08;4.10;84.00
67182;DHT22;54114;53.524;49.396;2023-02-26T10:52:16;4.10;84.00
67182;DHT22;54114;53.524;49.396;2023-02-26T10:57:43;4.10;84.20
67182;DHT22;54114;53.524;49.396;2023-02-26T11:00:20;4.10;84.40
67182;DHT22;54114;53.524;49.396;2023-02-26T11:02:49;4.10;84.00
67182;DHT22;54114;53.524;49.396;2023-02-26T11:05:21;4.20;83.90
67182;DHT22;54114;53.524;49.396;2023-02-26T11:08:05;4.10;83.80
67182;DHT22;54114;53.524;49.396;2023-02-26T11:11:01;4.20;83.80
67182;DHT22;54114;53.524;49.396;2023-02-26T11:13:29;4.20;83.50
67182;DHT22;54114;53.524;49.396;2023-02-26T11:16:05;4.10;83.50
67182;DHT22;54114;53.524;49.396;2023-02-26T11:18:45;4.10;83.60
67182;DHT22;54114;53.524;49.396;2023-02-26T11:21:37;4.10;83.80
67182;DHT22;54114;53.524;49.396;2023-02-26T11:24:21;4.20;83.90
67182;DHT22;54114;53.524;49.396;2023-02-26T11:26:59;4.20;83.60
67182;DHT22;54114;53.524;49.396;2023-02-26T11:29:42;4.20;83.70
67182;DHT22;54114;53.524;49.396;2023-02-26T11:32:23;4.20;83.80
67182;DHT22;54114;53.524;49.396;2023-02-26T11:35:00;4.20;83.40
67182;DHT22;54114;53.524;49.396;2023-02-26T11:37:38;4.20;83.30
67182;DHT22;54114;53.524;49.396;2023-02-26T11:40:20;4.20;83.20
67182;DHT22;54114;53.524;49.396;2023-02-26T11:42:58;4.20;83.20
67182;DHT22;54114;53.524;49.396;2023-02-26T11:45:32;4.30;83.20
67182;DHT22;54114;53.524;49.396;2023-02-26T11:48:06;4.30;83.10
67182;DHT22;54114;53.524;49.396;2023-02-26T11:50:45;4.30;83.20
67182;DHT22;54114;53.524;49.396;2023-02-26T11:53:36;4.30;83.00
67182;DHT22;54114;53.524;49.396;2023-02-26T11:56:13;4.30;82.80
67182;DHT22;54114;53.524;49.396;2023-02-26T11:58:45;4.30;82.80
67182;DHT22;54114;53.524;49.396;2023-02-26T12:01:15;4.30;82.80
67182;DHT22;54114;53.524;49.396;2023-02-26T12:03:47;4.40;82.80
67182;DHT22;54114;53.524;49.396;2023-02-26T12:06:21;4.30;82.60
67182;DHT22;54114;53.524;49.396;2023-02-26T12:08:52;4.30;82.70
67182;DHT22;54114;53.524;49.396;2023-02-26T12:14:56;4.30;82.70
67182;DHT22;54114;53.524;49.396;2023-02-26T12:23:36;4.30;82.70
67182;DHT22;54114;53.524;49.396;2023-02-26T12:26:18;4.30;82.90
67182;DHT22;54114;53.524;49.396;2023-02-26T12:29:09;4.30;83.60
67182;DHT22;54114;53.524;49.396;2023-02-26T12:38:19;4.40;83.00
67182;DHT22;54114;53.524;49.396;2023-02-26T12:41:39;4.40;83.10
67182;DHT22;54114;53.524;49.396;2023-02-26T12:45:01;4.40;83.20
67182;DHT22;54114;53.524;49.396;2023-02-26T13:03:39;4.40;83.30
67182;DHT22;54114;53.524;49.396;2023-02-26T13:06:30;4.40;83.30
67182;DHT22;54114;53.524;49.396;2023-02-26T13:09:31;4.30;83.40
67182;DHT22;54114;53.524;49.396;2023-02-26T13:12:21;4.40;83.50
67182;DHT22;54114;53.524;49.396;2023-02-26T13:18:33;4.40;84.00
67182;DHT22;54114;53.524;49.396;2023-02-26T13:21:35;4.50;84.10
67182;DHT22;54114;53.524;49.396;2023-02-26T13:24:21;4.50;83.80
67182;DHT22;54114;53.524;49.396;2023-02-26T13:26:52;4.50;83.70
67182;DHT22;54114;53.524;49.396;2023-02-26T13:29:28;4.50;83.80
67182;DHT22;54114;53.524;49.396;2023-02-26T13:32:07;4.60;83.70
67182;DHT22;54114;53.524;49.396;2023-02-26T13:34:53;4.60;83.40
67182;DHT22;54114;53.524;49.396;2023-02-26T13:37:28;4.70;83.20
67182;DHT22;54114;53.524;49.396;2023-02-26T13:50:29;4.70;82.10
67182;DHT22;54114;53.524;49.396;2023-02-26T13:56:07;4.70;81.60
67182;DHT22;54114;53.524;49.396;2023-02-26T14:01:56;4.70;80.90
67182;DHT22;54114;53.524;49.396;2023-02-26T14:04:58;4.70;80.90
67182;DHT22;54114;53.524;49.396;2023-02-26T14:07:45;4.50;81.60
67182;DHT22;54114;53.524;49.396;2023-02-26T14:10:25;4.40;82.50
67182;DHT22;54114;53.524;49.396;2023-02-26T14:13:09;4.30;83.30
67182;DHT22;54114;53.524;49.396;2023-02-26T14:18:50;4.20;84.60
67182;DHT22;54114;53.524;49.396;2023-02-26T14:26:31;4.10;86.00
67182;DHT22;54114;53.524;49.396;2023-02-26T14:29:18;4.00;86.10
67182;DHT22;54114;53.524;49.396;2023-02-26T14:31:54;3.90;86.70
67182;DHT22;54114;53.524;49.396;2023-02-26T14:34:34;3.90;87.30
67182;DHT22;54114;53.524;49.396;2023-02-26T14:37:13;3.90;87.60
67182;DHT22;54114;53.524;49.396;2023-02-26T14:40:16;3.80;88.40
67182;DHT22;54114;53.524;49.396;2023-02-26T14:42:51;3.80;88.80
67182;DHT22;54114;53.524;49.396;2023-02-26T14:45:24;3.80;89.30
67182;DHT22;54114;53.524;49.396;2023-02-26T14:48:00;3.80;89.20
67182;DHT22;54114;53.524;49.396;2023-02-26T14:50:48;3.70;90.00
67182;DHT22;54114;53.524;49.396;2023-02-26T14:53:46;3.70;90.10
67182;DHT22;54114;53.524;49.396;2023-02-26T14:56:21;3.70;90.20
67182;DHT22;54114;53.524;49.396;2023-02-26T15:01:46;3.70;90.40
67182;DHT22;54114;53.524;49.396;2023-02-26T15:10:30;3.80;90.60
67182;DHT22;54114;53.524;49.396;2023-02-26T15:24:34;3.80;90.60
67182;DHT22;54114;53.524;49.396;2023-02-26T15:27:05;3.80;90.70
67182;DHT22;54114;53.524;49.396;2023-02-26T15:29:37;3.80;90.80
67182;DHT22;54114;53.524;49.396;2023-02-26T15:35:16;3.80;90.70
67182;DHT22;54114;53.524;49.396;2023-02-26T15:37:53;3.80;90.80
67182;DHT22;54114;53.524;49.396;2023-02-26T15:40:24;3.80;90.80
67182;DHT22;54114;53.524;49.396;2023-02-26T15:42:53;3.80;90.90
67182;DHT22;54114;53.524;49.396;2023-02-26T15:45:35;3.80;90.80
67182;DHT22;54114;53.524;49.396;2023-02-26T15:48:07;3.80;90.90
67182;DHT22;54114;53.524;49.396;2023-02-26T15:50:39;3.80;90.80
67182;DHT22;54114;53.524;49.396;2023-02-26T15:53:11;3.80;90.90
67182;DHT22;54114;53.524;49.396;2023-02-26T15:55:50;3.80;91.00
67182;DHT22;54114;53.524;49.396;2023-02-26T15:58:45;3.80;91.00
67182;DHT22;54114;53.524;49.396;2023-02-26T16:01:15;3.80;90.90
67182;DHT22;54114;53.524;49.396;2023-02-26T16:03:43;3.80;91.00
67182;DHT22;54114;53.524;49.396;2023-02-26T16:06:16;3.80;91.20
67182;DHT22;54114;53.524;49.396;2023-02-26T16:08:49;3.80;91.10
67182;DHT22;54114;53.524;49.396;2023-02-26T16:11:19;3.80;91.20
67182;DHT22;54114;53.524;49.396;2023-02-26T16:13:50;3.70;91.20
67182;DHT22;54114;53.524;49.396;2023-02-26T16:16:27;3.70;91.20
67182;DHT22;54114;53.524;49.396;2023-02-26T16:19:00;3.70;91.30
67182;DHT22;54114;53.524;49.396;2023-02-26T16:21:36;3.70;91.40
67182;DHT22;54114;53.524;49.396;2023-02-26T16:24:07;3.70;91.30
67182;DHT22;54114;53.524;49.396;2023-02-26T16:26:44;3.70;91.30
67182;DHT22;54114;53.524;49.396;2023-02-26T16:29:30;3.60;91.30
67182;DHT22;54114;53.524;49.396;2023-02-26T16:32:02;3.60;91.30
67182;DHT22;54114;53.524;49.396;2023-02-26T16:37:25;3.50;91.90
67182;DHT22;54114;53.524;49.396;2023-02-26T16:48:11;3.40;91.50
67182;DHT22;54114;53.524;49.396;2023-02-26T16:50:39;3.30;91.40
67182;DHT22;54114;53.524;49.396;2023-02-26T16:53:18;3.30;91.60
67182;DHT22;54114;53.524;49.396;2023-02-26T16:55:52;3.30;91.80
67182;DHT22;54114;53.524;49.396;2023-02-26T16:58:25;3.30;91.80
67182;DHT22;54114;53.524;49.396;2023-02-26T17:01:05;3.30;91.90
67182;DHT22;54114;53.524;49.396;2023-02-26T17:03:34;3.30;91.60
67182;DHT22;54114;53.524;49.396;2023-02-26T17:06:11;3.20;91.90
67182;DHT22;54114;53.524;49.396;2023-02-26T17:11:28;3.20;91.80
67182;DHT22;54114;53.524;49.396;2023-02-26T17:16:48;3.20;91.80
67182;DHT22;54114;53.524;49.396;2023-02-26T17:19:16;3.10;91.80
67182;DHT22;54114;53.524;49.396;2023-02-26T17:21:52;3.20;91.90
67182;DHT22;54114;53.524;49.396;2023-02-26T17:24:36;3.20;92.10
67182;DHT22;54114;53.524;49.396;2023-02-26T17:27:08;3.20;91.90
67182;DHT22;54114;53.524;49.396;2023-02-26T17:29:42;3.10;92.30
67182;DHT22;54114;53.524;49.396;2023-02-26T17:32:23;3.20;92.10
67182;DHT22;54114;53.524;49.396;2023-02-26T17:34:58;3.20;92.20
67182;DHT22;54114;53.524;49.396;2023-02-26T17:37:30;3.20;92.10
67182;DHT22;54114;53.524;49.396;2023-02-26T17:40:02;3.20;92.20
67182;DHT22;54114;53.524;49.396;2023-02-26T17:42:29;3.20;92.20
67182;DHT22;54114;53.524;49.396;2023-02-26T17:44:58;3.20;92.20
67182;DHT22;54114;53.524;49.396;2023-02-26T17:47:25;3.30;92.30
67182;DHT22;54114;53.524;49.396;2023-02-26T17:49:54;3.30;92.40
67182;DHT22;54114;53.524;49.396;2023-02-26T17:52:21;3.30;92.20
67182;DHT22;54114;53.524;49.396;2023-02-26T17:54:48;3.30;92.40
67182;DHT22;54114;53.524;49.396;2023-02-26T17:57:18;3.30;92.20
67182;DHT22;54114;53.524;49.396;2023-02-26T17:59:49;3.40;92.40
67182;DHT22;54114;53.524;49.396;2023-02-26T18:04:46;3.40;92.50
67182;DHT22;54114;53.524;49.396;2023-02-26T18:07:14;3.50;92.50
67182;DHT22;54114;53.524;49.396;2023-02-26T18:09:44;3.50;92.30
67182;DHT22;54114;53.524;49.396;2023-02-26T18:12:20;3.50;92.30
67182;DHT22;54114;53.524;49.396;2023-02-26T18:14:47;3.50;92.40
67182;DHT22;54114;53.524;49.396;2023-02-26T18:17:21;3.60;92.40
67182;DHT22;54114;53.524;49.396;2023-02-26T18:19:52;3.60;92.30
67182;DHT22;54114;53.524;49.396;2023-02-26T18:22:22;3.60;92.30
67182;DHT22;54114;53.524;49.396;2023-02-26T18:24:51;3.60;92.30
67182;DHT22;54114;53.524;49.396;2023-02-26T18:27:19;3.70;92.20
67182;DHT22;54114;53.524;49.396;2023-02-26T18:29:47;3.70;92.20
67182;DHT22;54114;53.524;49.396;2023-02-26T18:32:22;3.70;92.10
67182;DHT22;54114;53.524;49.396;2023-02-26T18:34:49;3.70;92.10
67182;DHT22;54114;53.524;49.396;2023-02-26T18:37:23;3.70;92.10
67182;DHT22;54114;53.524;49.396;2023-02-26T18:39:56;3.70;92.10
67182;DHT22;54114;53.524;49.396;2023-02-26T18:42:25;3.70;92.20
67182;DHT22;54114;53.524;49.396;2023-02-26T18:44:57;3.70;92.30
67182;DHT22;54114;53.524;49.396;2023-02-26T18:47:26;3.70;92.20
67182;DHT22;54114;53.524;49.396;2023-02-26T18:49:53;3.80;92.20
67182;DHT22;54114;53.524;49.396;2023-02-26T18:52:20;3.80;92.20
67182;DHT22;54114;53.524;49.396;2023-02-26T18:54:46;3.80;92.00
67182;DHT22;54114;53.524;49.396;2023-02-26T18:57:18;3.80;92.00
67182;DHT22;54114;53.524;49.396;2023-02-26T18:59:44;3.80;92.00
67182;DHT22;54114;53.524;49.396;2023-02-26T19:02:12;3.80;92.10
67182;DHT22;54114;53.524;49.396;2023-02-26T19:04:39;3.80;92.10
67182;DHT22;54114;53.524;49.396;2023-02-26T19:07:07;3.80;92.10
67182;DHT22;54114;53.524;49.396;2023-02-26T19:09:34;3.80;92.00